UHMAUHMM

Guest
Details From UHMA - UGOLNY
To UHMM - Magadan Sokol
Flight Number -
Tags decoded
Created
Modified
Stats Distance 800 nm / 1,481 km
Max Altitude 0 ft / 0 m
Waypoints 2
Social Downloads 0
Likes 0
Share VATSIM

Download

Looking for another format? Having issues loading an existing format? Contact us
Advertisement - Login to hide

Notes

Requested: UHMA UHMM

Route

UHMA UHMM

ID Type Via Altitude Latitude Longitude Leg Dist Tot Dist Heading (true) Name
O UHMA APT - 0 ft / 0 m 64.73495˚ 177.74148˚ - 0 nm - UGOLNY
O UHMM APT - 0 ft / 0 m 59.91099˚ 150.72044˚ 799 nm 799 nm 261° / 237° Magadan Sokol

Altitude Profile

Advertisement - Login to hide

Weather


0- 5 10 15 20 25 30 35+ Temperature / ° C

Clouds and Precipitation
Forecast for 2017-12-18 18:00 UTC. Updated 6 minutes ago

Ground ~20,000 ft ~40,000 ft Winds

UHMA

Details ICAO UHMA (DYR)
Name UGOLNY
Region Russia
Timezone Asia/Anadyr (UTC+12.0)
Stats Elevation 194 ft / 59 m (AMSL)
Location 64.734950° 177.741483°
Runways 1
Magnetic Variation 1.430° E

METAR

UHMA 181500Z 06021G25MPS 0050 R01/0050 BLSN VV001 M08/M09 Q0981 RMK END R01/05018G22MPS QBB040 QFE732/0976

Decode

TAF

TAF UHMA 181344Z 1815/1915 08030G35MPS 0400 +SN BLSN VV001 FM182000 08015G20MPS 0800 +SN BLSN VV003 FM190000 08010G15MPS 2000 SN BLSN BKN006 OVC020 TEMPO 1900/1906 11006G11MPS 0800 +SN BLSN VV003 BECMG 1906/1908 10006MPS 4000 BR TEMPO 1906/1915 1000 SN BR VV003

Decode

Departure Runways

ID Width Length Bearing (true) Bearing (mag) Surface Threshold Offset Overrun Length
01 197 ft / 60 m 11,439 ft / 3,487 m 14.65° 13.22° Concrete 0 ft / 0 m 240 ft / 73 m
19 197 ft / 60 m 11,439 ft / 3,487 m 194.66° 193.23° Concrete 0 ft / 0 m 240 ft / 73 m

UHMM

Details ICAO UHMM (GDX)
Name Magadan Sokol
Region Russia
Timezone Asia/Magadan (UTC+11.0)
Stats Elevation 574 ft / 175 m (AMSL)
Location 59.910989° 150.720439°
Runways 1
Magnetic Variation 10.990° W

METAR

UHMM 181500Z 34005MPS 9999 NSC M23/M31 Q0996 RMK QFE732

Decode

TAF

TAF UHMM 181345Z 1815/1921 01003G12MPS 9999 SCT040 BKN070 TEMPO 1815/1912 33003G10MPS

Decode

Destination Runways

ID Width Length Bearing (true) Bearing (mag) Surface Threshold Offset Overrun Length
10 194 ft / 59 m 11,299 ft / 3,444 m 93.20° 104.19° Concrete 0 ft / 0 m 1,975 ft / 602 m
28 194 ft / 59 m 11,299 ft / 3,444 m 273.26° 284.25° Concrete 0 ft / 0 m 220 ft / 67 m

Approach Navaids

Runway Type Ident Frequency Range Bearing (true) Bearing (mag) Slope Elevation
10 Glidescope IFK 110.30 MHz 50 nm / 93 km 104.00° 114.99° 2.80° 574 ft / 175 m (AMSL)

Popular Alternatives